sensor_id;sensor_type;location;lat;lon;timestamp;temperature;humidity
53643;DHT22;39546;45.534;12.048;2022-12-18T00:02:12;7.60;88.00
53643;DHT22;39546;45.534;12.048;2022-12-18T00:08:15;7.60;87.90
53643;DHT22;39546;45.534;12.048;2022-12-18T00:14:17;7.60;87.80
53643;DHT22;39546;45.534;12.048;2022-12-18T00:26:32;7.50;87.90
53643;DHT22;39546;45.534;12.048;2022-12-18T00:32:36;7.50;87.80
53643;DHT22;39546;45.534;12.048;2022-12-18T00:38:39;7.50;87.80
53643;DHT22;39546;45.534;12.048;2022-12-18T00:44:41;7.50;87.80
53643;DHT22;39546;45.534;12.048;2022-12-18T00:50:43;7.50;88.10
53643;DHT22;39546;45.534;12.048;2022-12-18T00:56:48;7.40;88.20
53643;DHT22;39546;45.534;12.048;2022-12-18T01:02:50;7.50;88.10
53643;DHT22;39546;45.534;12.048;2022-12-18T01:08:53;7.40;88.10
53643;DHT22;39546;45.534;12.048;2022-12-18T01:14:55;7.40;88.10
53643;DHT22;39546;45.534;12.048;2022-12-18T01:20:57;7.30;88.00
53643;DHT22;39546;45.534;12.048;2022-12-18T01:26:59;7.30;88.00
53643;DHT22;39546;45.534;12.048;2022-12-18T01:33:01;7.30;88.00
53643;DHT22;39546;45.534;12.048;2022-12-18T01:39:12;7.30;87.90
53643;DHT22;39546;45.534;12.048;2022-12-18T01:45:31;7.20;87.80
53643;DHT22;39546;45.534;12.048;2022-12-18T01:51:33;7.10;88.10
53643;DHT22;39546;45.534;12.048;2022-12-18T01:57:35;7.10;88.00
53643;DHT22;39546;45.534;12.048;2022-12-18T02:03:41;7.00;87.90
53643;DHT22;39546;45.534;12.048;2022-12-18T02:09:54;6.90;87.90
53643;DHT22;39546;45.534;12.048;2022-12-18T02:16:19;6.70;87.80
53643;DHT22;39546;45.534;12.048;2022-12-18T02:28:33;6.70;87.90
53643;DHT22;39546;45.534;12.048;2022-12-18T02:34:39;6.70;88.00
53643;DHT22;39546;45.534;12.048;2022-12-18T02:40:43;6.70;88.10
53643;DHT22;39546;45.534;12.048;2022-12-18T02:46:50;6.80;88.00
53643;DHT22;39546;45.534;12.048;2022-12-18T02:53:11;6.70;88.00
53643;DHT22;39546;45.534;12.048;2022-12-18T02:59:19;6.80;87.70
53643;DHT22;39546;45.534;12.048;2022-12-18T03:05:38;6.80;87.40
53643;DHT22;39546;45.534;12.048;2022-12-18T03:11:46;6.80;87.30
53643;DHT22;39546;45.534;12.048;2022-12-18T03:18:29;6.70;87.20
53643;DHT22;39546;45.534;12.048;2022-12-18T03:24:33;6.50;87.40
53643;DHT22;39546;45.534;12.048;2022-12-18T03:30:39;6.60;87.40
53643;DHT22;39546;45.534;12.048;2022-12-18T03:36:43;6.60;87.30
53643;DHT22;39546;45.534;12.048;2022-12-18T03:42:52;6.50;87.30
53643;DHT22;39546;45.534;12.048;2022-12-18T03:49:09;6.40;87.20
53643;DHT22;39546;45.534;12.048;2022-12-18T03:55:13;6.40;87.30
53643;DHT22;39546;45.534;12.048;2022-12-18T04:01:16;6.30;87.20
53643;DHT22;39546;45.534;12.048;2022-12-18T04:07:20;6.30;87.20
53643;DHT22;39546;45.534;12.048;2022-12-18T04:13:33;6.20;87.20
53643;DHT22;39546;45.534;12.048;2022-12-18T04:19:36;6.20;87.20
53643;DHT22;39546;45.534;12.048;2022-12-18T04:25:38;6.20;87.10
53643;DHT22;39546;45.534;12.048;2022-12-18T04:31:41;6.20;87.10
53643;DHT22;39546;45.534;12.048;2022-12-18T04:37:43;6.10;87.00
53643;DHT22;39546;45.534;12.048;2022-12-18T04:43:46;6.10;87.10
53643;DHT22;39546;45.534;12.048;2022-12-18T04:49:48;6.10;87.00
53643;DHT22;39546;45.534;12.048;2022-12-18T04:55:50;6.00;86.90
53643;DHT22;39546;45.534;12.048;2022-12-18T05:01:52;5.90;86.90
53643;DHT22;39546;45.534;12.048;2022-12-18T05:07:55;5.90;86.90
53643;DHT22;39546;45.534;12.048;2022-12-18T05:13:57;5.90;86.80
53643;DHT22;39546;45.534;12.048;2022-12-18T05:19:59;5.90;86.80
53643;DHT22;39546;45.534;12.048;2022-12-18T05:26:03;5.80;86.80
53643;DHT22;39546;45.534;12.048;2022-12-18T05:32:05;5.80;86.80
53643;DHT22;39546;45.534;12.048;2022-12-18T05:38:07;5.90;86.90
53643;DHT22;39546;45.534;12.048;2022-12-18T05:44:09;5.90;87.00
53643;DHT22;39546;45.534;12.048;2022-12-18T05:50:11;5.80;86.80
53643;DHT22;39546;45.534;12.048;2022-12-18T05:56:16;5.80;86.80
53643;DHT22;39546;45.534;12.048;2022-12-18T06:02:19;5.70;86.80
53643;DHT22;39546;45.534;12.048;2022-12-18T06:08:22;5.70;86.70
53643;DHT22;39546;45.534;12.048;2022-12-18T06:14:24;5.70;86.60
53643;DHT22;39546;45.534;12.048;2022-12-18T06:20:26;5.70;86.60
53643;DHT22;39546;45.534;12.048;2022-12-18T06:26:28;5.70;86.50
53643;DHT22;39546;45.534;12.048;2022-12-18T06:32:30;5.70;86.50
53643;DHT22;39546;45.534;12.048;2022-12-18T06:38:35;5.60;86.40
53643;DHT22;39546;45.534;12.048;2022-12-18T06:44:37;5.70;86.50
53643;DHT22;39546;45.534;12.048;2022-12-18T06:50:42;5.70;86.50
53643;DHT22;39546;45.534;12.048;2022-12-18T06:56:47;5.70;86.60
53643;DHT22;39546;45.534;12.048;2022-12-18T07:02:49;5.60;86.60
53643;DHT22;39546;45.534;12.048;2022-12-18T07:08:52;5.50;86.60
53643;DHT22;39546;45.534;12.048;2022-12-18T07:14:55;5.50;86.60
53643;DHT22;39546;45.534;12.048;2022-12-18T07:20:56;5.50;86.50
53643;DHT22;39546;45.534;12.048;2022-12-18T07:26:58;5.40;86.50
53643;DHT22;39546;45.534;12.048;2022-12-18T07:33:00;5.40;86.60
53643;DHT22;39546;45.534;12.048;2022-12-18T07:39:03;5.40;86.80
53643;DHT22;39546;45.534;12.048;2022-12-18T07:45:05;5.40;86.80
53643;DHT22;39546;45.534;12.048;2022-12-18T07:51:07;5.50;86.70
53643;DHT22;39546;45.534;12.048;2022-12-18T07:57:09;5.60;86.70
53643;DHT22;39546;45.534;12.048;2022-12-18T08:03:15;5.60;86.70
53643;DHT22;39546;45.534;12.048;2022-12-18T08:09:17;5.70;86.90
53643;DHT22;39546;45.534;12.048;2022-12-18T08:15:18;5.70;87.00
53643;DHT22;39546;45.534;12.048;2022-12-18T08:21:26;5.60;87.00
53643;DHT22;39546;45.534;12.048;2022-12-18T08:27:29;5.70;87.10
53643;DHT22;39546;45.534;12.048;2022-12-18T08:33:36;5.70;87.20
53643;DHT22;39546;45.534;12.048;2022-12-18T08:39:39;5.80;87.30
53643;DHT22;39546;45.534;12.048;2022-12-18T08:45:41;5.80;87.10
53643;DHT22;39546;45.534;12.048;2022-12-18T08:51:43;5.90;87.20
53643;DHT22;39546;45.534;12.048;2022-12-18T08:57:48;5.80;87.00
53643;DHT22;39546;45.534;12.048;2022-12-18T09:03:51;5.90;87.30
53643;DHT22;39546;45.534;12.048;2022-12-18T09:09:53;6.00;87.20
53643;DHT22;39546;45.534;12.048;2022-12-18T09:15:55;6.00;87.20
53643;DHT22;39546;45.534;12.048;2022-12-18T09:21:57;6.10;87.40
53643;DHT22;39546;45.534;12.048;2022-12-18T09:28:00;6.20;87.50
53643;DHT22;39546;45.534;12.048;2022-12-18T09:34:02;6.20;87.40
53643;DHT22;39546;45.534;12.048;2022-12-18T09:40:19;6.20;87.30
53643;DHT22;39546;45.534;12.048;2022-12-18T09:46:34;6.30;87.30
53643;DHT22;39546;45.534;12.048;2022-12-18T09:52:43;6.30;87.40
53643;DHT22;39546;45.534;12.048;2022-12-18T09:58:52;6.40;87.50
53643;DHT22;39546;45.534;12.048;2022-12-18T10:05:19;6.50;87.50
53643;DHT22;39546;45.534;12.048;2022-12-18T10:11:48;6.60;87.60
53643;DHT22;39546;45.534;12.048;2022-12-18T10:18:02;6.70;87.30
53643;DHT22;39546;45.534;12.048;2022-12-18T10:30:21;6.80;86.90
53643;DHT22;39546;45.534;12.048;2022-12-18T10:36:24;6.90;86.90
53643;DHT22;39546;45.534;12.048;2022-12-18T10:42:27;7.00;87.00
53643;DHT22;39546;45.534;12.048;2022-12-18T10:48:30;7.20;86.90
53643;DHT22;39546;45.534;12.048;2022-12-18T10:54:33;7.20;86.90
53643;DHT22;39546;45.534;12.048;2022-12-18T11:00:35;7.40;86.70
53643;DHT22;39546;45.534;12.048;2022-12-18T11:12:54;7.70;85.90
53643;DHT22;39546;45.534;12.048;2022-12-18T11:19:28;7.70;85.00
53643;DHT22;39546;45.534;12.048;2022-12-18T11:25:33;7.90;84.60
53643;DHT22;39546;45.534;12.048;2022-12-18T11:31:35;8.00;84.20
53643;DHT22;39546;45.534;12.048;2022-12-18T11:37:40;8.20;83.50
53643;DHT22;39546;45.534;12.048;2022-12-18T11:43:53;8.20;82.50
53643;DHT22;39546;45.534;12.048;2022-12-18T11:49:59;8.30;81.70
53643;DHT22;39546;45.534;12.048;2022-12-18T12:02:42;8.30;80.90
53643;DHT22;39546;45.534;12.048;2022-12-18T12:09:08;8.40;80.90
53643;DHT22;39546;45.534;12.048;2022-12-18T12:15:28;8.40;80.80
53643;DHT22;39546;45.534;12.048;2022-12-18T12:21:42;8.40;81.20
53643;DHT22;39546;45.534;12.048;2022-12-18T12:28:06;8.40;81.10
53643;DHT22;39546;45.534;12.048;2022-12-18T12:40:23;8.50;80.90
53643;DHT22;39546;45.534;12.048;2022-12-18T12:46:30;8.60;81.40
53643;DHT22;39546;45.534;12.048;2022-12-18T12:52:41;8.50;81.00
53643;DHT22;39546;45.534;12.048;2022-12-18T12:59:05;8.50;81.20
53643;DHT22;39546;45.534;12.048;2022-12-18T13:11:43;8.70;80.80
53643;DHT22;39546;45.534;12.048;2022-12-18T13:30:44;8.90;80.00
53643;DHT22;39546;45.534;12.048;2022-12-18T13:36:48;9.10;79.50
53643;DHT22;39546;45.534;12.048;2022-12-18T13:42:50;9.20;79.20
53643;DHT22;39546;45.534;12.048;2022-12-18T13:55:18;9.40;78.40
53643;DHT22;39546;45.534;12.048;2022-12-18T14:01:22;9.30;78.70
53643;DHT22;39546;45.534;12.048;2022-12-18T14:07:26;9.30;78.90
53643;DHT22;39546;45.534;12.048;2022-12-18T14:13:39;9.20;79.20
53643;DHT22;39546;45.534;12.048;2022-12-18T14:19:47;9.50;78.70
53643;DHT22;39546;45.534;12.048;2022-12-18T14:25:50;9.80;78.00
53643;DHT22;39546;45.534;12.048;2022-12-18T14:32:10;10.40;77.60
53643;DHT22;39546;45.534;12.048;2022-12-18T14:38:33;10.70;77.30
53643;DHT22;39546;45.534;12.048;2022-12-18T14:44:36;10.70;77.80
53643;DHT22;39546;45.534;12.048;2022-12-18T14:50:38;10.20;78.70
53643;DHT22;39546;45.534;12.048;2022-12-18T14:56:48;9.60;79.90
53643;DHT22;39546;45.534;12.048;2022-12-18T15:02:56;9.20;80.80
53643;DHT22;39546;45.534;12.048;2022-12-18T15:09:00;8.80;81.40
53643;DHT22;39546;45.534;12.048;2022-12-18T15:15:04;8.60;81.80
53643;DHT22;39546;45.534;12.048;2022-12-18T15:21:11;8.30;82.20
53643;DHT22;39546;45.534;12.048;2022-12-18T15:27:47;8.20;82.50
53643;DHT22;39546;45.534;12.048;2022-12-18T15:39:54;7.80;83.10
53643;DHT22;39546;45.534;12.048;2022-12-18T15:45:56;7.70;83.30
53643;DHT22;39546;45.534;12.048;2022-12-18T15:52:01;7.60;83.40
53643;DHT22;39546;45.534;12.048;2022-12-18T15:58:04;7.40;83.70
53643;DHT22;39546;45.534;12.048;2022-12-18T16:04:08;7.30;83.80
53643;DHT22;39546;45.534;12.048;2022-12-18T16:10:11;7.30;83.90
53643;DHT22;39546;45.534;12.048;2022-12-18T16:16:13;7.20;84.00
53643;DHT22;39546;45.534;12.048;2022-12-18T16:22:20;7.10;84.10
53643;DHT22;39546;45.534;12.048;2022-12-18T16:28:23;7.00;84.20
53643;DHT22;39546;45.534;12.048;2022-12-18T16:34:26;7.00;84.20
53643;DHT22;39546;45.534;12.048;2022-12-18T16:40:32;6.90;84.30
53643;DHT22;39546;45.534;12.048;2022-12-18T16:46:34;6.80;84.30
53643;DHT22;39546;45.534;12.048;2022-12-18T16:52:37;6.80;84.40
53643;DHT22;39546;45.534;12.048;2022-12-18T16:58:40;6.70;84.40
53643;DHT22;39546;45.534;12.048;2022-12-18T17:04:42;6.60;84.60
53643;DHT22;39546;45.534;12.048;2022-12-18T17:10:44;6.50;84.60
53643;DHT22;39546;45.534;12.048;2022-12-18T17:16:46;6.50;84.70
53643;DHT22;39546;45.534;12.048;2022-12-18T17:22:48;6.50;84.60
53643;DHT22;39546;45.534;12.048;2022-12-18T17:28:50;6.40;84.60
53643;DHT22;39546;45.534;12.048;2022-12-18T17:34:52;6.30;84.70
53643;DHT22;39546;45.534;12.048;2022-12-18T17:41:00;6.30;84.70
53643;DHT22;39546;45.534;12.048;2022-12-18T17:47:02;6.20;84.70
53643;DHT22;39546;45.534;12.048;2022-12-18T17:53:04;6.20;84.70
53643;DHT22;39546;45.534;12.048;2022-12-18T17:59:06;6.20;84.70
53643;DHT22;39546;45.534;12.048;2022-12-18T18:05:09;6.20;84.70
53643;DHT22;39546;45.534;12.048;2022-12-18T18:11:17;6.20;84.70
53643;DHT22;39546;45.534;12.048;2022-12-18T18:17:38;6.10;84.70
53643;DHT22;39546;45.534;12.048;2022-12-18T18:23:40;6.10;84.70
53643;DHT22;39546;45.534;12.048;2022-12-18T18:29:42;6.00;84.70
53643;DHT22;39546;45.534;12.048;2022-12-18T18:35:45;5.90;84.70
53643;DHT22;39546;45.534;12.048;2022-12-18T18:41:48;5.90;84.80
53643;DHT22;39546;45.534;12.048;2022-12-18T18:47:51;5.90;84.90
53643;DHT22;39546;45.534;12.048;2022-12-18T18:53:53;5.80;84.80
53643;DHT22;39546;45.534;12.048;2022-12-18T18:59:55;5.70;84.80
53643;DHT22;39546;45.534;12.048;2022-12-18T19:05:58;5.60;84.90
53643;DHT22;39546;45.534;12.048;2022-12-18T19:12:02;5.60;84.90
53643;DHT22;39546;45.534;12.048;2022-12-18T19:18:22;5.60;84.80
53643;DHT22;39546;45.534;12.048;2022-12-18T19:24:36;5.60;84.70
53643;DHT22;39546;45.534;12.048;2022-12-18T19:30:38;5.60;85.00
53643;DHT22;39546;45.534;12.048;2022-12-18T19:36:40;5.60;85.30
53643;DHT22;39546;45.534;12.048;2022-12-18T19:42:42;5.50;85.20
53643;DHT22;39546;45.534;12.048;2022-12-18T19:49:03;5.50;85.50
53643;DHT22;39546;45.534;12.048;2022-12-18T19:55:07;5.50;85.70
53643;DHT22;39546;45.534;12.048;2022-12-18T20:01:10;5.40;85.40
53643;DHT22;39546;45.534;12.048;2022-12-18T20:07:26;5.40;85.70
53643;DHT22;39546;45.534;12.048;2022-12-18T20:13:28;5.30;85.40
53643;DHT22;39546;45.534;12.048;2022-12-18T20:19:53;5.20;85.30
53643;DHT22;39546;45.534;12.048;2022-12-18T20:26:05;5.20;85.30
53643;DHT22;39546;45.534;12.048;2022-12-18T20:32:08;5.20;85.40
53643;DHT22;39546;45.534;12.048;2022-12-18T20:38:19;5.20;85.40
53643;DHT22;39546;45.534;12.048;2022-12-18T20:44:21;5.20;85.40
53643;DHT22;39546;45.534;12.048;2022-12-18T20:50:23;5.10;85.30
53643;DHT22;39546;45.534;12.048;2022-12-18T20:56:26;5.10;85.30
53643;DHT22;39546;45.534;12.048;2022-12-18T21:02:31;5.10;85.60
53643;DHT22;39546;45.534;12.048;2022-12-18T21:08:33;5.00;85.50
53643;DHT22;39546;45.534;12.048;2022-12-18T21:14:35;5.00;85.40
53643;DHT22;39546;45.534;12.048;2022-12-18T21:20:37;4.90;85.30
53643;DHT22;39546;45.534;12.048;2022-12-18T21:26:40;4.90;85.40
53643;DHT22;39546;45.534;12.048;2022-12-18T21:32:43;4.90;85.60
53643;DHT22;39546;45.534;12.048;2022-12-18T21:38:46;4.90;85.60
53643;DHT22;39546;45.534;12.048;2022-12-18T21:44:48;4.90;85.60
53643;DHT22;39546;45.534;12.048;2022-12-18T21:50:50;4.90;85.30
53643;DHT22;39546;45.534;12.048;2022-12-18T21:56:53;4.80;85.30
53643;DHT22;39546;45.534;12.048;2022-12-18T22:02:56;4.80;85.60
53643;DHT22;39546;45.534;12.048;2022-12-18T22:08:58;4.80;85.70
53643;DHT22;39546;45.534;12.048;2022-12-18T22:15:02;4.80;85.70
53643;DHT22;39546;45.534;12.048;2022-12-18T22:21:05;4.70;86.00
53643;DHT22;39546;45.534;12.048;2022-12-18T22:27:09;4.70;86.20
53643;DHT22;39546;45.534;12.048;2022-12-18T22:33:11;4.70;86.30
53643;DHT22;39546;45.534;12.048;2022-12-18T22:39:22;4.70;86.30
53643;DHT22;39546;45.534;12.048;2022-12-18T22:45:25;4.70;86.20
53643;DHT22;39546;45.534;12.048;2022-12-18T22:51:27;4.60;86.10
53643;DHT22;39546;45.534;12.048;2022-12-18T22:57:29;4.50;86.20
53643;DHT22;39546;45.534;12.048;2022-12-18T23:03:32;4.50;86.00
53643;DHT22;39546;45.534;12.048;2022-12-18T23:09:35;4.50;86.00
53643;DHT22;39546;45.534;12.048;2022-12-18T23:15:41;4.50;85.90
53643;DHT22;39546;45.534;12.048;2022-12-18T23:21:43;4.50;86.00
53643;DHT22;39546;45.534;12.048;2022-12-18T23:27:45;4.50;86.00
53643;DHT22;39546;45.534;12.048;2022-12-18T23:33:47;4.40;85.90
53643;DHT22;39546;45.534;12.048;2022-12-18T23:39:49;4.40;86.10
53643;DHT22;39546;45.534;12.048;2022-12-18T23:45:51;4.40;86.30
53643;DHT22;39546;45.534;12.048;2022-12-18T23:51:54;4.30;86.40
